• Join FlightAware (Why Join?)
  • Login
  • US Flag 
03:54PM EDT


 

Airport Tracker/Info


-or-


 

Live Flight TrackerFlight Track Log ✈ SWA896 ✈ 24-Apr-2013 ✈ KBUF - KLAS

Flight Track Log - Related Links

Times and Time Zones

All times are in EDT time to prevent confusion due to time zone crossing. See the SWA896 flight status page for this flight to view local times or setup timezone preferences in your user account.

Time Position Orientation Groundspeed Altitude Reporting Facility
EDT Latitude Longitude Course Direction KTS MPH feet Rate Location/Type
08:16AM 42.9167 -78.7500 236° Southwest 172 198 2,200  Level Buffalo TRACON
08:17AM 42.9000 -78.7833 236° Southwest 182 209 3,900 2,280 Climbing Buffalo TRACON
08:18AM 42.8200 -78.8225 200° South 249 287 6,800 2,640 Climbing Cleveland Center
08:19AM 42.7517 -78.8556 200° South 254 292 9,700 2,100 Climbing Cleveland Center
08:20AM 42.6811 -78.8858 198° South 262 302 11,000 1,440 Climbing Cleveland Center
08:21AM 42.5903 -78.9306 200° South 306 352 12,600 1,800 Climbing Cleveland Center
08:22AM 42.4928 -78.9753 199° South 348 400 14,600 2,100 Climbing Cleveland Center
08:23AM 42.3914 -79.0258 200° South 381 438 16,800 2,100 Climbing Cleveland Center
08:24AM 42.2878 -79.0758 200° South 388 447 18,800 1,920 Climbing Cleveland Center
08:25AM 42.1950 -79.1511 211° Southwest 381 438 20,700 1,740 Climbing Cleveland Center
08:26AM 42.1842 -79.2969 264° West 352 405 22,300 1,380 Climbing Cleveland Center
08:27AM 42.1836 -79.4511 270° West 365 420 23,500 1,200 Climbing Cleveland Center
08:28AM 42.1808 -79.6053 269° West 394 453 24,800 1,200 Climbing Cleveland Center
08:29AM 42.1781 -79.7650 269° West 416 479 25,900 1,200 Climbing Cleveland Center
08:30AM 42.1747 -79.9081 268° West 427 491 27,200 1,320 Climbing Cleveland Center
08:31AM 42.1672 -80.0622 266° West 426 490 28,600 1,380 Climbing Cleveland Center
08:32AM 42.1344 -80.2108 253° West 412 474 30,000 1,320 Climbing Cleveland Center
08:33AM 42.1056 -80.3706 256° West 407 468 31,300 1,200 Climbing Cleveland Center
08:34AM 42.1081 -80.5244 271° West 407 468 32,400 1,260 Climbing Cleveland Center
08:35AM 42.1058 -80.6728 269° West 401 461 33,900 780 Climbing Cleveland Center
08:36AM 42.1036 -80.8125 269° West 394 453 34,000  Climbing Cleveland Center
08:37AM 42.1011 -80.9525 269° West 383 441 34,000 -480 Level Cleveland Center
08:38AM 42.1006 -81.0925 270° West 383 441 33,100 -1,020 Descending Cleveland Center
08:39AM 42.1000 -81.2267 270° West 369 425 32,000 -600 Descending Cleveland Center
08:40AM 42.0969 -81.3667 268° West 367 422 32,000  Level Cleveland Center
08:41AM 42.0958 -81.5094 269° West 380 437 32,000  Level Cleveland Center
08:42AM 42.0925 -81.6547 268° West 385 443 32,000  Level Cleveland Center
08:43AM 42.0889 -81.8003 268° West 390 449 32,000  Level Cleveland Center
08:44AM 42.0853 -81.9456 268° West 390 449 32,000  Level Cleveland Center
08:45AM 42.0833 -82.0939 269° West 390 449 32,000  Level Cleveland Center
08:46AM 42.0775 -82.2225 267° West 390 449 32,000  Level Cleveland Center
08:47AM 42.0753 -82.3650 269° West 384 442 32,000  Level Cleveland Center
08:48AM 42.0772 -82.5078 271° West 384 442 32,000  Level Cleveland Center
08:49AM 42.0683 -82.6558 265° West 384 442 32,000  Level Cleveland Center
08:50AM 42.0658 -82.7928 269° West 384 442 32,000  Level Cleveland Center
08:51AM 42.0631 -82.9381 269° West 384 442 32,000  Level Cleveland Center
08:52AM 42.0578 -83.0778 267° West 384 442 32,000  Level Cleveland Center
08:53AM 42.0547 -83.2203 268° West 384 442 32,000  Level Cleveland Center
08:54AM 42.0469 -83.3711 266° West 379 436 32,000  Level Cleveland Center
08:55AM 42.0436 -83.5050 268° West 368 423 32,000  Level Cleveland Center
08:56AM 42.0297 -83.6386 262° West 368 423 32,000  Level Cleveland Center
08:57AM 42.0156 -83.7722 262° West 368 423 32,000  Level Cleveland Center
08:58AM 42.0033 -83.9086 263° West 368 423 32,000  Level Cleveland Center
08:59AM 41.9933 -84.0367 264° West 363 418 32,000  Level Cleveland Center
09:00AM 41.9811 -84.1700 263° West 363 418 32,000  Level Cleveland Center
09:02AM 41.9572 -84.4425 263° West 359 413 32,000  Level Chicago Center
09:03AM 41.9444 -84.5700 262° West 350 403 32,000  Level Chicago Center
09:04AM 41.9319 -84.6981 263° West 348 400 32,000  Level Chicago Center
09:05AM 41.9186 -84.8261 262° West 348 400 32,000  Level Chicago Center
09:06AM 41.9067 -84.9536 263° West 347 399 32,000  Level Chicago Center
09:07AM 41.8939 -85.0803 262° West 346 398 32,000  Level Chicago Center
09:08AM 41.8778 -85.2336 262° West 349 402 32,000  Level Chicago Center
09:09AM 41.8653 -85.3639 263° West 357 411 32,000  Level Chicago Center
09:10AM 41.8525 -85.4919 262° West 353 406 32,000 -180 Level Chicago Center
09:12AM 41.8403 -85.6192 263° West 350 403 31,700 -600 Descending Chicago Center
09:13AM 41.8272 -85.7481 262° West 352 405 30,800 -840 Descending Chicago Center
09:14AM 41.8117 -85.9081 263° West 361 415 30,000 -420 Descending Chicago Center
09:15AM 41.7983 -86.0389 262° West 358 412 30,000  Level Chicago Center
09:16AM 41.7856 -86.1692 263° West 356 410 30,000  Level Chicago Center
09:17AM 41.7769 -86.3036 265° West 361 415 30,000  Level Chicago Center
09:18AM 41.7733 -86.4383 268° West 363 418 30,000  Level Chicago Center
09:19AM 41.7672 -86.5708 267° West 359 413 30,000  Level Chicago Center
09:20AM 41.7617 -86.7222 267° West 359 413 30,000 60 Level Chicago Center
09:21AM 41.7572 -86.8533 267° West 355 409 30,200 600 Climbing Chicago Center
09:22AM 41.7519 -86.9850 267° West 355 409 31,300 1,020 Climbing Chicago Center
09:23AM 41.7439 -87.1456 266° West 361 415 32,400 960 Climbing Chicago Center
09:24AM 41.7381 -87.2792 267° West 362 417 33,400 960 Climbing Chicago Center
09:25AM 41.7328 -87.4133 267° West 363 418 34,400 960 Climbing Chicago Center
09:26AM 41.7258 -87.5450 266° West 358 412 35,400 720 Climbing Chicago Center
09:27AM 41.7203 -87.6739 267° West 353 406 36,000 240 Climbing Chicago Center
09:28AM 41.7125 -87.8242 266° West 340 391 36,000  Level Chicago Center
09:29AM 41.7061 -87.9500 266° West 343 395 36,000  Level Chicago Center
09:30AM 41.7003 -88.0750 266° West 342 394 36,000  Level Chicago Center
09:31AM 41.6936 -88.2003 266° West 343 395 36,000  Level Chicago Center
09:32AM 41.6856 -88.3514 266° West 343 395 36,000  Level Chicago Center
09:33AM 41.6786 -88.4772 266° West 344 396 36,000  Level Chicago Center
09:34AM 41.6717 -88.6069 266° West 350 403 36,000  Level Chicago Center
09:35AM 41.6633 -88.7383 265° West 357 411 36,000  Level Chicago Center
09:36AM 41.6556 -88.8736 266° West 366 421 36,000  Level Chicago Center
09:37AM 41.6469 -89.0342 266° West 363 418 36,000  Level Chicago Center
09:38AM 41.6383 -89.1714 265° West 369 425 36,000  Level Chicago Center
09:39AM 41.6300 -89.3064 265° West 368 423 36,000  Level Chicago Center
09:40AM 41.6217 -89.4411 265° West 366 421 36,000  Level Chicago Center
09:41AM 41.6131 -89.5908 266° West 364 419 36,000  Level Chicago Center
09:43AM 41.6036 -89.7256 265° West 366 421 36,000  Level Chicago Center
09:44AM 41.5950 -89.8617 265° West 369 425 36,000  Level Chicago Center
09:45AM 41.5861 -89.9978 265° West 370 426 36,000  Level Chicago Center
09:46AM 41.5772 -90.1367 265° West 375 432 36,000  Level Chicago Center
09:47AM 41.5639 -90.3075 264° West 384 442 36,000  Level Chicago Center
09:48AM 41.5539 -90.4503 265° West 387 445 36,000  Level Chicago Center
09:49AM 41.5439 -90.5911 265° West 384 442 36,000  Level Chicago Center
09:50AM 41.5333 -90.7325 264° West 387 445 36,000  Level Chicago Center
09:51AM 41.5225 -90.8783 264° West 390 449 36,000  Level Chicago Center
09:52AM 41.5125 -91.0222 265° West 390 449 36,000  Level Chicago Center
09:53AM 41.4981 -91.1961 264° West 393 452 36,000  Level Chicago Center
09:54AM 41.4875 -91.3389 264° West 394 453 36,000  Level Chicago Center
09:55AM 41.4750 -91.4836 263° West 395 455 36,000  Level Chicago Center
09:56AM 41.4642 -91.6258 264° West 390 449 36,000  Level Chicago Center
09:57AM 41.4522 -91.7717 264° West 393 452 36,000  Level Chicago Center
09:58AM 41.4364 -91.9439 263° West 393 452 36,000  Level Chicago Center
09:59AM 41.4244 -92.0897 264° West 396 456 36,000  Level Chicago Center
10:00AM 41.4111 -92.2325 263° West 393 452 36,000  Level Chicago Center
10:01AM 41.3983 -92.3767 263° West 392 451 36,000  Level Chicago Center
10:02AM 41.3831 -92.5467 263° West 393 452 36,000  Level Chicago Center
10:03AM 41.3697 -92.6886 263° West 390 449 36,000  Level Chicago Center
10:04AM 41.3675 -92.7183 264° West 392 451 36,000  Level Minneapolis Center
10:05AM 41.3542 -92.8592 263° West 389 448 36,000  Level Minneapolis Center
10:06AM 41.3364 -93.0553 263° West 386 444 36,000  Level Minneapolis Center
10:07AM 41.3233 -93.1925 263° West 381 438 36,000  Level Minneapolis Center
10:08AM 41.3092 -93.3308 262° West 380 437 36,000  Level Minneapolis Center
10:09AM 41.2950 -93.4717 262° West 385 443 36,000  Level Minneapolis Center
10:10AM 41.2825 -93.6089 263° West 380 437 36,000  Level Minneapolis Center
10:11AM 41.2625 -93.8064 262° West 387 445 36,000  Level Minneapolis Center
10:12AM 41.2481 -93.9453 262° West 385 443 36,000  Level Minneapolis Center
10:13AM 41.2339 -94.0875 263° West 389 448 36,000  Level Minneapolis Center
10:14AM 41.2181 -94.2264 261° West 389 448 36,000  Level Minneapolis Center
10:16AM 41.1856 -94.5342 262° West 385 443 36,000  Level Minneapolis Center
10:17AM 41.1703 -94.6750 262° West 386 444 36,000  Level Minneapolis Center
10:18AM 41.1556 -94.8164 262° West 387 445 36,000  Level Minneapolis Center
10:19AM 41.1389 -94.9578 261° West 387 445 36,000  Level Minneapolis Center
10:20AM 41.1228 -95.0989 261° West 389 448 36,000  Level Minneapolis Center
10:21AM 41.1081 -95.2400 262° West 387 445 36,000  Level Minneapolis Center
10:22AM 41.0897 -95.3831 260° West 391 450 36,000  Level Minneapolis Center
10:24AM 41.0761 -95.4978 261° West 393 452 36,000  Level Minneapolis Center
10:25AM 41.0539 -95.6969 262° West 390 449 36,000  Level Minneapolis Center
10:26AM 41.0361 -95.8372 261° West 385 443 36,000  Level Minneapolis Center
10:27AM 41.0189 -95.9778 261° West 384 442 36,000  Level Minneapolis Center
10:28AM 41.0025 -96.1178 261° West 383 441 36,000  Level Minneapolis Center
10:29AM 40.9853 -96.2556 261° West 379 436 36,000  Level Minneapolis Center
10:30AM 40.9675 -96.3947 260° West 380 437 36,000  Level Minneapolis Center
10:31AM 40.9542 -96.5050 261° West 379 436 36,000  Level Minneapolis Center
10:32AM 40.9339 -96.6692 261° West 377 434 36,000  Level Minneapolis Center
10:33AM 40.9022 -96.8278 255° West 373 429 36,000  Level Minneapolis Center
10:34AM 40.8631 -96.9542 248° West 372 428 36,000  Level Minneapolis Center
10:35AM 40.8269 -97.0828 250° West 373 429 36,000  Level Minneapolis Center
10:36AM 40.7903 -97.2092 249° West 370 426 36,000  Level Minneapolis Center
10:37AM 40.7536 -97.3378 249° West 373 429 36,000  Level Minneapolis Center
10:38AM 40.7142 -97.4758 249° West 372 428 36,000  Level Minneapolis Center
10:39AM 40.6769 -97.6028 249° West 371 427 36,000  Level Minneapolis Center
10:40AM 40.6467 -97.7044 249° West 371 427 36,000  Level Minneapolis Center
10:41AM 40.6022 -97.8572 249° West 371 427 36,000  Level Minneapolis Center
10:42AM 40.5572 -98.0092 249° West 370 426 36,000  Level Minneapolis Center
10:43AM 40.5197 -98.1358 249° West 370 426 36,000  Level Minneapolis Center
10:44AM 40.4819 -98.2617 248° West 369 425 36,000  Level Minneapolis Center
10:45AM 40.4442 -98.3875 249° West 369 425 36,000  Level Minneapolis Center
10:46AM 40.4064 -98.5136 249° West 370 426 36,000  Level Minneapolis Center
10:47AM 40.3692 -98.6383 249° West 368 423 36,000  Level Minneapolis Center
10:48AM 40.3300 -98.7636 248° West 369 425 36,000  Level Minneapolis Center
10:49AM 40.2919 -98.8875 248° West 367 422 36,000  Level Minneapolis Center
10:50AM 40.2686 -98.9642 248° West 367 422 36,000  Level Denver Center
10:51AM 40.2314 -99.0869 248° West 363 418 36,000  Level Denver Center
10:52AM 40.1936 -99.2122 248° West 370 426 36,000  Level Denver Center
10:53AM 40.1547 -99.3347 247° West 365 420 36,000  Level Denver Center
10:54AM 40.1153 -99.4594 248° West 369 425 36,000  Level Denver Center
10:55AM 40.0767 -99.5831 248° West 369 425 36,000  Level Denver Center
10:56AM 40.0308 -99.7297 248° West 363 418 36,000  Level Denver Center
10:57AM 39.9922 -99.8486 247° West 357 411 36,000  Level Denver Center
10:58AM 39.9553 -99.9686 248° West 356 410 36,000  Level Denver Center
10:59AM 39.9167 -100.0889 247° West 357 411 36,000  Level Denver Center
11:00AM 39.8786 -100.2064 247° West 354 407 36,000  Level Denver Center
11:01AM 39.8344 -100.3444 247° West 355 409 36,000  Level Denver Center
11:02AM 39.7981 -100.4553 247° West 351 404 36,000  Level Denver Center
11:03AM 39.7611 -100.5681 247° West 353 406 36,000  Level Denver Center
11:04AM 39.7186 -100.6969 247° West 348 400 36,000  Level Denver Center
11:05AM 39.6831 -100.8075 247° West 346 398 36,000  Level Denver Center
11:06AM 39.6406 -100.9344 247° West 344 396 36,000  Level Denver Center
11:07AM 39.6044 -101.0425 247° West 342 394 36,000  Level Denver Center
11:08AM 39.5628 -101.1686 247° West 341 392 36,000  Level Denver Center
11:09AM 39.5269 -101.2792 247° West 345 397 36,000  Level Denver Center
11:10AM 39.4847 -101.4064 247° West 346 398 36,000  Level Denver Center
11:12AM 39.4481 -101.5144 246° West 345 397 36,000  Level Denver Center
11:13AM 39.4058 -101.6397 246° West 341 392 36,000  Level Denver Center
11:14AM 39.3792 -101.7486 252° West 335 386 36,000  Level Denver Center
11:15AM 39.3592 -101.8775 259° West 328 377 36,000  Level Denver Center
11:16AM 39.3425 -101.9881 259° West 328 377 36,000  Level Denver Center
11:17AM 39.3253 -102.1022 259° West 329 379 36,000  Level Denver Center
11:18AM 39.3053 -102.2292 259° West 325 374 36,000  Level Denver Center
11:19AM 39.2889 -102.3378 259° West 323 372 36,000  Level Denver Center
11:20AM 39.2683 -102.4628 258° West 320 368 36,000  Level Denver Center
11:21AM 39.2519 -102.5711 259° West 319 367 36,000  Level Denver Center
11:22AM 39.2317 -102.6956 258° West 319 367 36,000  Level Denver Center
11:23AM 39.2164 -102.8014 259° West 313 360 36,000  Level Denver Center
11:24AM 39.1978 -102.9117 258° West 311 358 36,000  Level Denver Center
11:25AM 39.1806 -103.0203 258° West 308 354 36,000  Level Denver Center
11:26AM 39.1625 -103.1308 258° West 311 358 36,000  Level Denver Center
11:27AM 39.1408 -103.2592 258° West 312 359 36,000  Level Denver Center
11:28AM 39.1233 -103.3694 258° West 314 361 36,000  Level Denver Center
11:29AM 39.1050 -103.4806 258° West 314 361 36,000  Level Denver Center
11:30AM 39.0864 -103.5917 258° West 315 362 36,000  Level Denver Center
11:31AM 39.0681 -103.7039 258° West 318 366 36,000  Level Denver Center
11:32AM 39.0475 -103.8158 257° West 318 366 36,000  Level Denver Center
11:33AM 39.0303 -103.9269 259° West 315 362 36,000  Level Denver Center
11:34AM 39.0106 -104.0372 257° West 315 362 36,000  Level Denver Center
11:35AM 38.9883 -104.1658 258° West 313 360 36,000  Level Denver Center
11:36AM 38.9692 -104.2767 257° West 313 360 36,000  Level Denver Center
11:37AM 38.9500 -104.3861 257° West 312 359 36,000  Level Denver Center
11:38AM 38.9311 -104.4983 258° West 318 366 36,000  Level Denver Center
11:39AM 38.9106 -104.6086 257° West 315 362 36,000  Level Denver Center
11:40AM 38.8911 -104.7197 257° West 316 364 36,000  Level Denver Center
11:42AM 38.8714 -104.8308 257° West 315 362 36,000  Level Denver Center
11:43AM 38.8514 -104.9439 257° West 319 367 36,000  Level Denver Center
11:44AM 38.8269 -105.0761 257° West 323 372 36,000  Level Denver Center
11:45AM 38.8064 -105.1911 257° West 327 376 36,000  Level Denver Center
11:46AM 38.7861 -105.3061 257° West 327 376 36,000  Level Denver Center
11:47AM 38.7642 -105.4222 256° West 330 380 36,000  Level Denver Center
11:48AM 38.7425 -105.5383 257° West 332 382 36,000  Level Denver Center
11:49AM 38.7194 -105.6550 256° West 334 384 36,000  Level Denver Center
11:50AM 38.6986 -105.7703 257° West 330 380 36,000  Level Denver Center
11:51AM 38.6775 -105.8844 257° West 328 377 36,000  Level Denver Center
11:52AM 38.6525 -106.0167 256° West 326 375 36,000  Level Denver Center
11:53AM 38.6300 -106.1289 256° West 323 372 36,000  Level Denver Center
11:54AM 38.6094 -106.2400 257° West 326 375 36,000  Level Denver Center
11:55AM 38.5878 -106.3542 256° West 329 379 36,000  Level Denver Center
11:56AM 38.5653 -106.4661 256° West 325 374 36,000  Level Denver Center
11:57AM 38.5425 -106.5786 256° West 326 375 36,000  Level Denver Center
11:58AM 38.5258 -106.6675 257° West 324 373 36,000  Level Denver Center
11:59AM 38.4989 -106.8036 256° West 326 375 36,000  Level Denver Center
12:00PM 38.4725 -106.9400 256° West 328 377 36,000  Level Denver Center
12:01PM 38.4478 -107.0547 255° West 326 375 36,000  Level Denver Center
12:02PM 38.4117 -107.1611 247° West 333 383 36,000  Level Denver Center
12:03PM 38.3739 -107.2742 247° West 336 387 36,000  Level Denver Center
12:04PM 38.3333 -107.3958 247° West 335 386 36,000  Level Denver Center
12:05PM 38.2989 -107.5008 247° West 335 386 36,000  Level Denver Center
12:06PM 38.2639 -107.6033 247° West 332 382 36,000  Level Denver Center
12:07PM 38.2236 -107.7275 248° West 337 388 36,000  Level Denver Center
12:08PM 38.1878 -107.8317 246° West 336 387 36,000  Level Denver Center
12:09PM 38.1458 -107.9539 246° West 338 389 36,000  Level Denver Center
12:10PM 38.1100 -108.0614 247° West 342 394 36,000  Level Denver Center
12:11PM 38.0675 -108.1878 247° West 345 397 36,000  Level Denver Center
12:13PM 38.0317 -108.2944 247° West 346 398 36,000  Level Denver Center
12:14PM 37.9881 -108.4169 246° West 344 396 36,000  Level Denver Center
12:15PM 37.9519 -108.5225 247° West 343 395 36,000  Level Denver Center
12:16PM 37.9078 -108.6483 246° West 346 398 36,000  Level Denver Center
12:17PM 37.8708 -108.7550 246° West 348 400 36,000  Level Denver Center
12:18PM 37.8272 -108.8797 246° West 348 400 36,000  Level Denver Center
12:19PM 37.7942 -108.9889 249° West 348 400 36,000  Level Denver Center
12:20PM 37.7625 -109.1194 253° West 349 402 36,000  Level Denver Center
12:21PM 37.7336 -109.2308 252° West 343 395 36,000  Level Denver Center
12:22PM 37.7014 -109.3625 253° West 354 407 36,000  Level Denver Center
12:23PM 37.6733 -109.4750 253° West 352 405 36,000  Level Denver Center
12:24PM 37.6403 -109.6058 252° West 352 405 36,000 -480 Level Denver Center
12:25PM 37.6117 -109.7192 252° West 354 407 35,100 -900 Descending Denver Center
12:26PM 37.5833 -109.8328 253° West 355 409 34,200 -360 Descending Denver Center
12:28PM 37.5164 -110.0894 252° West 357 411 34,000 -120 Descending Los Angeles Center
12:29PM 37.4842 -110.2069 251° West 356 410 34,000  Level Los Angeles Center
12:30PM 37.4539 -110.3281 253° West 361 415 34,000  Level Los Angeles Center
12:31PM 37.4244 -110.4464 253° West 360 414 34,000  Level Denver Center
12:32PM 37.3858 -110.5939 252° West 369 425 34,000  Level Denver Center
12:33PM 37.3544 -110.7153 252° West 367 422 34,000 -300 Level Denver Center
12:34PM 37.3219 -110.8367 251° West 368 423 33,500 -780 Descending Denver Center
12:35PM 37.2900 -110.9575 252° West 365 420 32,500 -780 Descending Denver Center
12:36PM 37.2572 -111.0814 252° West 371 427 32,000 -300 Descending Denver Center
12:37PM 37.2244 -111.2047 252° West 374 430 32,000  Level Denver Center
12:38PM 37.1911 -111.3278 251° West 374 430 32,000  Level Denver Center
12:39PM 37.1497 -111.4769 251° West 378 435 32,000  Level Denver Center
12:40PM 37.1175 -111.6008 252° West 375 432 32,000  Level Denver Center
12:41PM 37.0833 -111.7247 251° West 376 433 32,000  Level Denver Center
12:43PM 37.0489 -111.8506 251° West 380 437 32,000 -60 Level Denver Center
12:44PM 37.0142 -111.9758 251° West 380 437 31,900 -540 Descending Denver Center
12:45PM 36.9789 -112.1017 251° West 382 440 30,900 -1,020 Descending Denver Center
12:46PM 36.9364 -112.2553 251° West 387 445 29,800 -1,080 Descending Denver Center
12:47PM 36.9025 -112.3769 251° West 375 432 28,700 -1,020 Descending Los Angeles Center
12:48PM 36.8811 -112.4725 254° West 364 419 27,800 -1,020 Descending Los Angeles Center
12:49PM 36.8731 -112.6208 266° West 356 410 26,600 -1,080 Descending Los Angeles Center
12:50PM 36.8672 -112.7419 267° West 350 403 25,600 -1,020 Descending Los Angeles Center
12:51PM 36.8611 -112.8603 266° West 344 396 24,600 -1,140 Descending Los Angeles Center
12:52PM 36.8519 -113.0003 265° West 339 390 23,300 -1,500 Descending Los Angeles Center
12:53PM 36.8400 -113.1156 263° West 336 387 21,500 -1,440 Descending Los Angeles Center
12:54PM 36.8025 -113.2247 247° West 340 391 20,400 -1,020 Descending Los Angeles Center
12:55PM 36.7672 -113.3364 249° West 344 396 19,400 -1,020 Descending Los Angeles Center
12:56PM 36.7317 -113.4461 248° West 343 395 18,400 -1,020 Descending Los Angeles Center
12:57PM 36.6975 -113.5539 248° West 337 388 17,400 -1,080 Descending Los Angeles Center
12:58PM 36.6556 -113.6822 248° West 334 384 16,200 -1,080 Descending Los Angeles Center
12:59PM 36.6211 -113.7892 248° West 333 383 15,200 -1,020 Descending Los Angeles Center
01:00PM 36.5858 -113.8967 248° West 336 387 14,200 -900 Descending Los Angeles Center
01:01PM 36.5578 -113.9828 248° West 335 386 13,400 -1,020 Descending Los Angeles Center
01:02PM 36.5222 -114.0958 249° West 339 390 12,500 -1,080 Descending Los Angeles Center
01:02PM 36.5022 -114.1508 246° West 342 394 12,100 -300 Descending Los Angeles Center
01:03PM 36.4756 -114.2344 248° West 338 389 12,100  Level Los Angeles Center
01:04PM 36.4408 -114.3411 248° West 334 384 12,100 -120 Level Los Angeles Center
01:05PM 36.4289 -114.3850 251° West 331 381 12,000 -120 Descending Los Angeles Center
01:05PM 36.4075 -114.4406 244° Southwest 317 365 12,000  Level Los Angeles Center
01:06PM 36.3628 -114.4939 224° Southwest 295 339 12,000 -840 Level Los Angeles Center
01:07PM 36.3103 -114.5997 238° Southwest 298 343 10,300 -1,680 Descending Los Angeles Center
01:08PM 36.2917 -114.6431 242° Southwest 299 344 9,800 -1,200 Descending Los Angeles Center
01:08PM 36.2589 -114.7036 236° Southwest 294 338 9,100 -1,020 Descending Los Angeles Center
01:09PM 36.2494 -114.7267 243° Southwest 288 331 8,800 -780 Descending Los Angeles Center
01:09PM 36.2175 -114.7853 236° Southwest 283 326 8,300 -420 Descending Los Angeles Center
01:10PM 36.2053 -114.8108 239° Southwest 276 318 8,400 -420 Climbing Los Angeles Center
01:10PM 36.1803 -114.8611 238° Southwest 266 306 7,900 -1,020 Descending Los Angeles Center
01:11PM 36.1697 -114.8842 240° Southwest 247 284 7,400 -1,380 Descending Los Angeles Center
01:12PM 36.1450 -114.9314 237° Southwest 248 285 6,500 -1,200 Descending Los Angeles Center
01:13PM 36.1350 -114.9981 259° West 211 243 5,300 -1,200 Descending Los Angeles Center
01:14PM 36.1392 -115.0583 275° West 189 217 4,100 -1,080 Descending Los Angeles Center
01:15PM 36.1331 -115.1264 264° West 174 200 3,100 -900 Descending Los Angeles Center
01:16PM 36.1047 -115.1528 217° Southwest 167 192 2,300 -780 Descending Los Angeles Center
01:18PM 36.0801 -115.1523 219° Southwest  Level Estimated